sensor_id;sensor_type;location;lat;lon;timestamp;P1;durP1;ratioP1;P2;durP2;ratioP2
56413;SDS011;42318;48.452;19.526;2023-06-10T00:03:10;1.40;;;0.95;;
56413;SDS011;42318;48.452;19.526;2023-06-10T00:10:41;1.08;;;0.90;;
56413;SDS011;42318;48.452;19.526;2023-06-10T00:18:12;1.30;;;0.90;;
56413;SDS011;42318;48.452;19.526;2023-06-10T00:25:42;1.17;;;0.90;;
56413;SDS011;42318;48.452;19.526;2023-06-10T00:33:13;1.33;;;1.00;;
56413;SDS011;42318;48.452;19.526;2023-06-10T00:40:44;0.98;;;0.63;;
56413;SDS011;42318;48.452;19.526;2023-06-10T00:48:15;1.83;;;0.88;;
56413;SDS011;42318;48.452;19.526;2023-06-10T00:55:46;1.50;;;0.88;;
56413;SDS011;42318;48.452;19.526;2023-06-10T01:03:17;0.73;;;0.70;;
56413;SDS011;42318;48.452;19.526;2023-06-10T01:10:54;1.43;;;1.10;;
56413;SDS011;42318;48.452;19.526;2023-06-10T01:18:31;1.27;;;0.80;;
56413;SDS011;42318;48.452;19.526;2023-06-10T01:26:04;0.82;;;0.70;;
56413;SDS011;42318;48.452;19.526;2023-06-10T01:33:41;1.08;;;0.88;;
56413;SDS011;42318;48.452;19.526;2023-06-10T01:41:16;1.10;;;0.90;;
56413;SDS011;42318;48.452;19.526;2023-06-10T01:48:48;2.70;;;0.80;;
56413;SDS011;42318;48.452;19.526;2023-06-10T01:56:18;0.90;;;0.60;;
56413;SDS011;42318;48.452;19.526;2023-06-10T02:03:50;0.80;;;0.77;;
56413;SDS011;42318;48.452;19.526;2023-06-10T02:11:21;0.95;;;0.75;;
56413;SDS011;42318;48.452;19.526;2023-06-10T02:18:52;1.60;;;0.70;;
56413;SDS011;42318;48.452;19.526;2023-06-10T02:26:22;1.10;;;0.82;;
56413;SDS011;42318;48.452;19.526;2023-06-10T02:33:56;0.90;;;0.70;;
56413;SDS011;42318;48.452;19.526;2023-06-10T02:41:27;1.42;;;0.80;;
56413;SDS011;42318;48.452;19.526;2023-06-10T02:48:58;1.83;;;0.90;;
56413;SDS011;42318;48.452;19.526;2023-06-10T02:56:28;1.05;;;0.80;;
56413;SDS011;42318;48.452;19.526;2023-06-10T03:03:59;1.10;;;0.70;;
56413;SDS011;42318;48.452;19.526;2023-06-10T03:11:30;1.88;;;0.70;;
56413;SDS011;42318;48.452;19.526;2023-06-10T03:19:01;1.33;;;0.70;;
56413;SDS011;42318;48.452;19.526;2023-06-10T03:26:32;1.08;;;0.70;;
56413;SDS011;42318;48.452;19.526;2023-06-10T03:34:02;0.70;;;0.63;;
56413;SDS011;42318;48.452;19.526;2023-06-10T03:41:33;1.90;;;1.05;;
56413;SDS011;42318;48.452;19.526;2023-06-10T03:49:04;0.90;;;0.80;;
56413;SDS011;42318;48.452;19.526;2023-06-10T03:56:35;1.23;;;0.75;;
56413;SDS011;42318;48.452;19.526;2023-06-10T04:04:06;1.10;;;0.75;;
56413;SDS011;42318;48.452;19.526;2023-06-10T04:11:36;1.02;;;0.80;;
56413;SDS011;42318;48.452;19.526;2023-06-10T04:19:07;1.23;;;0.70;;
56413;SDS011;42318;48.452;19.526;2023-06-10T04:26:38;1.10;;;0.70;;
56413;SDS011;42318;48.452;19.526;2023-06-10T04:34:09;1.23;;;0.70;;
56413;SDS011;42318;48.452;19.526;2023-06-10T04:41:40;1.05;;;0.65;;
56413;SDS011;42318;48.452;19.526;2023-06-10T04:49:11;1.13;;;0.77;;
56413;SDS011;42318;48.452;19.526;2023-06-10T04:56:44;0.73;;;0.68;;
56413;SDS011;42318;48.452;19.526;2023-06-10T05:04:15;0.77;;;0.65;;
56413;SDS011;42318;48.452;19.526;2023-06-10T05:11:46;0.95;;;0.77;;
56413;SDS011;42318;48.452;19.526;2023-06-10T05:19:17;1.15;;;0.70;;
56413;SDS011;42318;48.452;19.526;2023-06-10T05:34:20;0.73;;;0.73;;
56413;SDS011;42318;48.452;19.526;2023-06-10T05:41:51;0.90;;;0.70;;
56413;SDS011;42318;48.452;19.526;2023-06-10T05:49:22;0.98;;;0.70;;
56413;SDS011;42318;48.452;19.526;2023-06-10T05:56:52;1.20;;;0.70;;
56413;SDS011;42318;48.452;19.526;2023-06-10T06:04:23;0.70;;;0.60;;
56413;SDS011;42318;48.452;19.526;2023-06-10T06:11:54;1.17;;;0.70;;
56413;SDS011;42318;48.452;19.526;2023-06-10T06:19:25;0.82;;;0.70;;
56413;SDS011;42318;48.452;19.526;2023-06-10T06:26:56;1.17;;;0.90;;
56413;SDS011;42318;48.452;19.526;2023-06-10T06:34:26;1.13;;;0.80;;
56413;SDS011;42318;48.452;19.526;2023-06-10T06:41:57;0.90;;;0.60;;
56413;SDS011;42318;48.452;19.526;2023-06-10T06:49:28;0.80;;;0.80;;
56413;SDS011;42318;48.452;19.526;2023-06-10T06:56:58;0.88;;;0.60;;
56413;SDS011;42318;48.452;19.526;2023-06-10T07:04:29;0.82;;;0.77;;
56413;SDS011;42318;48.452;19.526;2023-06-10T07:12:00;0.68;;;0.60;;
56413;SDS011;42318;48.452;19.526;2023-06-10T07:19:31;1.52;;;0.75;;
56413;SDS011;42318;48.452;19.526;2023-06-10T07:27:02;1.02;;;0.80;;
56413;SDS011;42318;48.452;19.526;2023-06-10T07:34:33;2.78;;;1.25;;
56413;SDS011;42318;48.452;19.526;2023-06-10T07:42:04;1.83;;;1.10;;
56413;SDS011;42318;48.452;19.526;2023-06-10T07:49:35;3.00;;;0.93;;
56413;SDS011;42318;48.452;19.526;2023-06-10T07:57:06;1.23;;;0.80;;
56413;SDS011;42318;48.452;19.526;2023-06-10T08:04:40;1.40;;;0.90;;
56413;SDS011;42318;48.452;19.526;2023-06-10T08:12:11;1.95;;;1.00;;
56413;SDS011;42318;48.452;19.526;2023-06-10T08:19:41;1.30;;;0.90;;
56413;SDS011;42318;48.452;19.526;2023-06-10T08:27:12;1.73;;;0.88;;
56413;SDS011;42318;48.452;19.526;2023-06-10T08:34:43;1.35;;;0.80;;
56413;SDS011;42318;48.452;19.526;2023-06-10T08:42:21;2.25;;;0.90;;
56413;SDS011;42318;48.452;19.526;2023-06-10T08:49:55;1.45;;;0.95;;
56413;SDS011;42318;48.452;19.526;2023-06-10T08:57:29;1.35;;;0.82;;
56413;SDS011;42318;48.452;19.526;2023-06-10T09:05:01;1.02;;;0.70;;
56413;SDS011;42318;48.452;19.526;2023-06-10T09:12:33;1.47;;;1.10;;
56413;SDS011;42318;48.452;19.526;2023-06-10T09:35:21;2.90;;;1.00;;
56413;SDS011;42318;48.452;19.526;2023-06-10T09:42:53;3.97;;;1.17;;
56413;SDS011;42318;48.452;19.526;2023-06-10T09:50:25;2.58;;;1.30;;
56413;SDS011;42318;48.452;19.526;2023-06-10T09:57:56;4.18;;;1.52;;
56413;SDS011;42318;48.452;19.526;2023-06-10T10:05:29;2.60;;;1.75;;
56413;SDS011;42318;48.452;19.526;2023-06-10T10:13:00;2.67;;;1.83;;
56413;SDS011;42318;48.452;19.526;2023-06-10T10:20:33;4.55;;;2.72;;
56413;SDS011;42318;48.452;19.526;2023-06-10T10:28:09;2.85;;;2.10;;
56413;SDS011;42318;48.452;19.526;2023-06-10T10:35:42;3.20;;;1.77;;
56413;SDS011;42318;48.452;19.526;2023-06-10T10:43:14;4.60;;;2.23;;
56413;SDS011;42318;48.452;19.526;2023-06-10T10:50:55;3.03;;;1.88;;
56413;SDS011;42318;48.452;19.526;2023-06-10T10:58:27;2.40;;;1.60;;
56413;SDS011;42318;48.452;19.526;2023-06-10T11:05:58;2.22;;;1.50;;
56413;SDS011;42318;48.452;19.526;2023-06-10T11:13:29;6.68;;;1.73;;
56413;SDS011;42318;48.452;19.526;2023-06-10T11:28:35;2.40;;;1.38;;
56413;SDS011;42318;48.452;19.526;2023-06-10T11:36:06;2.13;;;1.30;;
56413;SDS011;42318;48.452;19.526;2023-06-10T11:43:44;3.22;;;1.40;;
56413;SDS011;42318;48.452;19.526;2023-06-10T11:51:16;3.08;;;1.52;;
56413;SDS011;42318;48.452;19.526;2023-06-10T11:58:51;1.38;;;1.20;;
56413;SDS011;42318;48.452;19.526;2023-06-10T12:06:24;1.80;;;1.50;;
56413;SDS011;42318;48.452;19.526;2023-06-10T12:13:54;2.20;;;1.27;;
56413;SDS011;42318;48.452;19.526;2023-06-10T12:21:28;2.45;;;1.58;;
56413;SDS011;42318;48.452;19.526;2023-06-10T12:29:00;3.55;;;1.92;;
56413;SDS011;42318;48.452;19.526;2023-06-10T12:36:31;2.30;;;1.40;;
56413;SDS011;42318;48.452;19.526;2023-06-10T12:44:03;1.85;;;1.63;;
56413;SDS011;42318;48.452;19.526;2023-06-10T12:59:07;3.25;;;1.40;;
56413;SDS011;42318;48.452;19.526;2023-06-10T13:06:38;2.60;;;1.42;;
56413;SDS011;42318;48.452;19.526;2023-06-10T13:14:10;1.63;;;1.30;;
56413;SDS011;42318;48.452;19.526;2023-06-10T13:21:41;2.65;;;1.02;;
56413;SDS011;42318;48.452;19.526;2023-06-10T13:29:12;1.27;;;1.02;;
56413;SDS011;42318;48.452;19.526;2023-06-10T13:36:44;1.27;;;1.00;;
56413;SDS011;42318;48.452;19.526;2023-06-10T13:44:15;1.17;;;1.02;;
56413;SDS011;42318;48.452;19.526;2023-06-10T13:51:46;1.73;;;1.10;;
56413;SDS011;42318;48.452;19.526;2023-06-10T13:59:18;1.60;;;1.00;;
56413;SDS011;42318;48.452;19.526;2023-06-10T14:06:49;1.23;;;1.10;;
56413;SDS011;42318;48.452;19.526;2023-06-10T14:14:20;2.22;;;1.00;;
56413;SDS011;42318;48.452;19.526;2023-06-10T14:21:51;1.75;;;1.30;;
56413;SDS011;42318;48.452;19.526;2023-06-10T14:29:23;1.50;;;1.10;;
56413;SDS011;42318;48.452;19.526;2023-06-10T14:36:54;2.05;;;1.10;;
56413;SDS011;42318;48.452;19.526;2023-06-10T14:44:26;2.07;;;1.37;;
56413;SDS011;42318;48.452;19.526;2023-06-10T14:51:57;1.48;;;1.27;;
56413;SDS011;42318;48.452;19.526;2023-06-10T14:59:30;1.58;;;1.17;;
56413;SDS011;42318;48.452;19.526;2023-06-10T15:07:02;2.78;;;1.15;;
56413;SDS011;42318;48.452;19.526;2023-06-10T15:14:33;1.37;;;1.00;;
56413;SDS011;42318;48.452;19.526;2023-06-10T15:22:04;1.70;;;1.30;;
56413;SDS011;42318;48.452;19.526;2023-06-10T15:29:34;1.67;;;1.23;;
56413;SDS011;42318;48.452;19.526;2023-06-10T15:37:05;2.47;;;1.35;;
56413;SDS011;42318;48.452;19.526;2023-06-10T15:44:36;4.07;;;1.20;;
56413;SDS011;42318;48.452;19.526;2023-06-10T15:52:07;1.38;;;1.00;;
56413;SDS011;42318;48.452;19.526;2023-06-10T15:59:38;1.60;;;1.17;;
56413;SDS011;42318;48.452;19.526;2023-06-10T16:07:08;2.53;;;1.10;;
56413;SDS011;42318;48.452;19.526;2023-06-10T16:14:39;1.50;;;1.13;;
56413;SDS011;42318;48.452;19.526;2023-06-10T16:22:10;1.05;;;0.93;;
56413;SDS011;42318;48.452;19.526;2023-06-10T16:29:41;1.75;;;1.17;;
56413;SDS011;42318;48.452;19.526;2023-06-10T16:37:12;1.50;;;1.10;;
56413;SDS011;42318;48.452;19.526;2023-06-10T16:44:43;1.40;;;1.10;;
56413;SDS011;42318;48.452;19.526;2023-06-10T16:52:14;1.63;;;1.30;;
56413;SDS011;42318;48.452;19.526;2023-06-10T16:59:45;1.33;;;1.17;;
56413;SDS011;42318;48.452;19.526;2023-06-10T17:07:15;1.38;;;1.20;;
56413;SDS011;42318;48.452;19.526;2023-06-10T17:22:19;1.63;;;1.25;;
56413;SDS011;42318;48.452;19.526;2023-06-10T17:29:49;1.48;;;1.05;;
56413;SDS011;42318;48.452;19.526;2023-06-10T17:37:20;2.20;;;1.20;;
56413;SDS011;42318;48.452;19.526;2023-06-10T17:44:51;1.92;;;1.30;;
56413;SDS011;42318;48.452;19.526;2023-06-10T17:52:22;1.25;;;1.08;;
56413;SDS011;42318;48.452;19.526;2023-06-10T17:59:53;1.80;;;1.30;;
56413;SDS011;42318;48.452;19.526;2023-06-10T18:07:23;2.20;;;1.35;;
56413;SDS011;42318;48.452;19.526;2023-06-10T18:14:54;1.88;;;1.10;;
56413;SDS011;42318;48.452;19.526;2023-06-10T18:22:25;1.38;;;0.93;;
56413;SDS011;42318;48.452;19.526;2023-06-10T18:29:56;2.05;;;1.17;;
56413;SDS011;42318;48.452;19.526;2023-06-10T18:37:27;3.03;;;1.33;;
56413;SDS011;42318;48.452;19.526;2023-06-10T18:44:58;1.85;;;1.40;;
56413;SDS011;42318;48.452;19.526;2023-06-10T18:52:28;1.90;;;1.30;;
56413;SDS011;42318;48.452;19.526;2023-06-10T18:59:59;1.48;;;1.15;;
56413;SDS011;42318;48.452;19.526;2023-06-10T19:07:30;1.88;;;1.30;;
56413;SDS011;42318;48.452;19.526;2023-06-10T19:15:02;2.85;;;1.45;;
56413;SDS011;42318;48.452;19.526;2023-06-10T19:22:33;1.42;;;1.13;;
56413;SDS011;42318;48.452;19.526;2023-06-10T19:30:04;1.83;;;1.23;;
56413;SDS011;42318;48.452;19.526;2023-06-10T19:37:36;1.60;;;1.30;;
56413;SDS011;42318;48.452;19.526;2023-06-10T19:45:07;1.48;;;1.35;;
56413;SDS011;42318;48.452;19.526;2023-06-10T19:52:38;0.93;;;0.90;;
56413;SDS011;42318;48.452;19.526;2023-06-10T20:00:09;2.10;;;1.20;;
56413;SDS011;42318;48.452;19.526;2023-06-10T20:07:42;1.50;;;1.30;;
56413;SDS011;42318;48.452;19.526;2023-06-10T20:15:13;1.20;;;1.10;;
56413;SDS011;42318;48.452;19.526;2023-06-10T20:22:44;1.30;;;1.20;;
56413;SDS011;42318;48.452;19.526;2023-06-10T20:30:14;1.90;;;0.95;;
56413;SDS011;42318;48.452;19.526;2023-06-10T20:37:46;1.40;;;1.25;;
56413;SDS011;42318;48.452;19.526;2023-06-10T20:45:16;1.52;;;1.13;;
56413;SDS011;42318;48.452;19.526;2023-06-10T20:52:47;1.95;;;1.30;;
56413;SDS011;42318;48.452;19.526;2023-06-10T21:00:18;1.92;;;1.50;;
56413;SDS011;42318;48.452;19.526;2023-06-10T21:07:49;1.73;;;1.38;;
56413;SDS011;42318;48.452;19.526;2023-06-10T21:15:20;1.52;;;1.27;;
56413;SDS011;42318;48.452;19.526;2023-06-10T21:22:51;1.30;;;1.10;;
56413;SDS011;42318;48.452;19.526;2023-06-10T21:30:21;2.13;;;1.50;;
56413;SDS011;42318;48.452;19.526;2023-06-10T21:37:52;1.40;;;1.15;;
56413;SDS011;42318;48.452;19.526;2023-06-10T21:45:23;1.38;;;1.08;;
56413;SDS011;42318;48.452;19.526;2023-06-10T21:52:54;1.92;;;1.13;;
56413;SDS011;42318;48.452;19.526;2023-06-10T22:00:25;1.30;;;1.08;;
56413;SDS011;42318;48.452;19.526;2023-06-10T22:07:56;1.88;;;1.33;;
56413;SDS011;42318;48.452;19.526;2023-06-10T22:15:26;1.70;;;1.27;;
56413;SDS011;42318;48.452;19.526;2023-06-10T22:22:57;1.80;;;1.48;;
56413;SDS011;42318;48.452;19.526;2023-06-10T22:30:28;1.70;;;1.42;;
56413;SDS011;42318;48.452;19.526;2023-06-10T22:37:59;1.70;;;1.15;;
56413;SDS011;42318;48.452;19.526;2023-06-10T22:45:30;2.05;;;1.20;;
56413;SDS011;42318;48.452;19.526;2023-06-10T22:53:01;2.00;;;1.35;;
56413;SDS011;42318;48.452;19.526;2023-06-10T23:00:32;1.90;;;1.48;;
56413;SDS011;42318;48.452;19.526;2023-06-10T23:08:03;1.80;;;1.50;;
56413;SDS011;42318;48.452;19.526;2023-06-10T23:15:34;1.55;;;1.30;;
56413;SDS011;42318;48.452;19.526;2023-06-10T23:23:05;1.67;;;1.05;;
56413;SDS011;42318;48.452;19.526;2023-06-10T23:30:37;1.45;;;1.20;;
56413;SDS011;42318;48.452;19.526;2023-06-10T23:38:08;3.13;;;1.75;;
56413;SDS011;42318;48.452;19.526;2023-06-10T23:45:39;1.95;;;1.50;;
56413;SDS011;42318;48.452;19.526;2023-06-10T23:53:10;2.38;;;1.52;;
